sensor_id;sensor_type;location;lat;lon;timestamp;temperature;humidity
38183;DHT22;23991;52.430;10.586;2024-02-21T00:00:07;9.00;83.80
38183;DHT22;23991;52.430;10.586;2024-02-21T00:02:32;9.00;83.90
38183;DHT22;23991;52.430;10.586;2024-02-21T00:04:58;9.00;83.90
38183;DHT22;23991;52.430;10.586;2024-02-21T00:07:24;8.90;84.00
38183;DHT22;23991;52.430;10.586;2024-02-21T00:09:49;8.90;84.10
38183;DHT22;23991;52.430;10.586;2024-02-21T00:12:15;8.90;84.10
38183;DHT22;23991;52.430;10.586;2024-02-21T00:14:40;8.90;84.10
38183;DHT22;23991;52.430;10.586;2024-02-21T00:17:06;9.00;84.10
38183;DHT22;23991;52.430;10.586;2024-02-21T00:19:34;8.90;84.00
38183;DHT22;23991;52.430;10.586;2024-02-21T00:22:01;8.90;84.00
38183;DHT22;23991;52.430;10.586;2024-02-21T00:24:26;8.90;83.90
38183;DHT22;23991;52.430;10.586;2024-02-21T00:26:53;8.90;83.90
38183;DHT22;23991;52.430;10.586;2024-02-21T00:29:19;8.90;84.00
38183;DHT22;23991;52.430;10.586;2024-02-21T00:31:44;8.90;84.10
38183;DHT22;23991;52.430;10.586;2024-02-21T00:34:10;8.90;84.00
38183;DHT22;23991;52.430;10.586;2024-02-21T00:36:38;8.90;84.00
38183;DHT22;23991;52.430;10.586;2024-02-21T00:39:03;8.90;84.10
38183;DHT22;23991;52.430;10.586;2024-02-21T00:41:32;8.80;84.20
38183;DHT22;23991;52.430;10.586;2024-02-21T00:43:58;8.90;84.10
38183;DHT22;23991;52.430;10.586;2024-02-21T00:46:24;8.90;84.00
38183;DHT22;23991;52.430;10.586;2024-02-21T00:48:49;8.90;83.90
38183;DHT22;23991;52.430;10.586;2024-02-21T00:51:16;8.90;83.90
38183;DHT22;23991;52.430;10.586;2024-02-21T00:53:42;8.90;84.00
38183;DHT22;23991;52.430;10.586;2024-02-21T00:56:08;8.90;84.00
38183;DHT22;23991;52.430;10.586;2024-02-21T00:58:33;8.90;83.90
38183;DHT22;23991;52.430;10.586;2024-02-21T01:01:00;8.90;83.90
38183;DHT22;23991;52.430;10.586;2024-02-21T01:03:26;8.90;83.90
38183;DHT22;23991;52.430;10.586;2024-02-21T01:05:52;8.90;84.00
38183;DHT22;23991;52.430;10.586;2024-02-21T01:08:17;8.90;83.80
38183;DHT22;23991;52.430;10.586;2024-02-21T01:10:43;8.90;83.80
38183;DHT22;23991;52.430;10.586;2024-02-21T01:13:09;8.90;83.90
38183;DHT22;23991;52.430;10.586;2024-02-21T01:15:35;8.90;83.90
38183;DHT22;23991;52.430;10.586;2024-02-21T01:18:01;8.90;83.80
38183;DHT22;23991;52.430;10.586;2024-02-21T01:20:27;9.00;83.80
38183;DHT22;23991;52.430;10.586;2024-02-21T01:22:53;8.90;83.80
38183;DHT22;23991;52.430;10.586;2024-02-21T01:25:19;8.90;83.90
38183;DHT22;23991;52.430;10.586;2024-02-21T01:27:44;8.90;83.90
38183;DHT22;23991;52.430;10.586;2024-02-21T01:30:12;8.90;84.00
38183;DHT22;23991;52.430;10.586;2024-02-21T01:32:38;8.90;84.00
38183;DHT22;23991;52.430;10.586;2024-02-21T01:35:03;8.90;84.00
38183;DHT22;23991;52.430;10.586;2024-02-21T01:37:29;8.90;83.90
38183;DHT22;23991;52.430;10.586;2024-02-21T01:39:55;8.90;84.00
38183;DHT22;23991;52.430;10.586;2024-02-21T01:42:20;8.90;84.00
38183;DHT22;23991;52.430;10.586;2024-02-21T01:44:46;8.90;84.10
38183;DHT22;23991;52.430;10.586;2024-02-21T01:47:12;8.90;84.30
38183;DHT22;23991;52.430;10.586;2024-02-21T01:49:40;8.90;84.30
38183;DHT22;23991;52.430;10.586;2024-02-21T01:52:07;8.90;84.40
38183;DHT22;23991;52.430;10.586;2024-02-21T01:54:34;8.90;84.50
38183;DHT22;23991;52.430;10.586;2024-02-21T01:57:00;8.90;84.40
38183;DHT22;23991;52.430;10.586;2024-02-21T01:59:26;8.90;84.40
38183;DHT22;23991;52.430;10.586;2024-02-21T02:01:52;8.90;84.40
38183;DHT22;23991;52.430;10.586;2024-02-21T02:04:20;8.90;84.50
38183;DHT22;23991;52.430;10.586;2024-02-21T02:06:46;8.90;84.50
38183;DHT22;23991;52.430;10.586;2024-02-21T02:09:11;8.90;84.60
38183;DHT22;23991;52.430;10.586;2024-02-21T02:11:37;8.90;84.60
38183;DHT22;23991;52.430;10.586;2024-02-21T02:14:02;8.90;84.50
38183;DHT22;23991;52.430;10.586;2024-02-21T02:16:29;8.90;84.50
38183;DHT22;23991;52.430;10.586;2024-02-21T02:18:55;8.90;84.50
38183;DHT22;23991;52.430;10.586;2024-02-21T02:21:32;8.90;84.40
38183;DHT22;23991;52.430;10.586;2024-02-21T02:23:59;8.90;84.50
38183;DHT22;23991;52.430;10.586;2024-02-21T02:26:24;8.80;84.50
38183;DHT22;23991;52.430;10.586;2024-02-21T02:28:50;8.90;84.50
38183;DHT22;23991;52.430;10.586;2024-02-21T02:31:15;8.90;84.50
38183;DHT22;23991;52.430;10.586;2024-02-21T02:33:43;8.90;84.40
38183;DHT22;23991;52.430;10.586;2024-02-21T02:36:09;8.90;84.30
38183;DHT22;23991;52.430;10.586;2024-02-21T02:38:35;8.90;84.30
38183;DHT22;23991;52.430;10.586;2024-02-21T02:41:00;8.90;84.20
38183;DHT22;23991;52.430;10.586;2024-02-21T02:43:26;8.90;84.10
38183;DHT22;23991;52.430;10.586;2024-02-21T02:45:51;9.00;83.90
38183;DHT22;23991;52.430;10.586;2024-02-21T02:48:17;9.00;83.70
38183;DHT22;23991;52.430;10.586;2024-02-21T02:50:43;9.00;83.50
38183;DHT22;23991;52.430;10.586;2024-02-21T02:53:09;9.00;83.40
38183;DHT22;23991;52.430;10.586;2024-02-21T02:55:34;9.00;83.50
38183;DHT22;23991;52.430;10.586;2024-02-21T02:58:00;9.00;83.50
38183;DHT22;23991;52.430;10.586;2024-02-21T03:00:26;9.00;83.40
38183;DHT22;23991;52.430;10.586;2024-02-21T03:02:52;8.90;83.50
38183;DHT22;23991;52.430;10.586;2024-02-21T03:05:19;8.90;83.30
38183;DHT22;23991;52.430;10.586;2024-02-21T03:07:46;8.90;83.20
38183;DHT22;23991;52.430;10.586;2024-02-21T03:10:12;8.90;83.30
38183;DHT22;23991;52.430;10.586;2024-02-21T03:12:38;8.90;83.20
38183;DHT22;23991;52.430;10.586;2024-02-21T03:15:05;8.90;83.20
38183;DHT22;23991;52.430;10.586;2024-02-21T03:17:32;8.90;83.20
38183;DHT22;23991;52.430;10.586;2024-02-21T03:20:03;8.90;83.20
38183;DHT22;23991;52.430;10.586;2024-02-21T03:22:35;8.90;83.20
38183;DHT22;23991;52.430;10.586;2024-02-21T03:25:01;8.90;83.20
38183;DHT22;23991;52.430;10.586;2024-02-21T03:27:27;8.90;83.20
38183;DHT22;23991;52.430;10.586;2024-02-21T03:29:52;8.90;83.10
38183;DHT22;23991;52.430;10.586;2024-02-21T03:32:18;8.90;83.10
38183;DHT22;23991;52.430;10.586;2024-02-21T03:34:43;8.90;83.00
38183;DHT22;23991;52.430;10.586;2024-02-21T03:37:09;8.90;83.00
38183;DHT22;23991;52.430;10.586;2024-02-21T03:39:34;8.90;83.00
38183;DHT22;23991;52.430;10.586;2024-02-21T03:42:00;8.90;82.90
38183;DHT22;23991;52.430;10.586;2024-02-21T03:44:30;8.90;82.90
38183;DHT22;23991;52.430;10.586;2024-02-21T03:46:56;8.90;83.00
38183;DHT22;23991;52.430;10.586;2024-02-21T03:49:21;8.90;82.90
38183;DHT22;23991;52.430;10.586;2024-02-21T03:51:47;8.90;82.90
38183;DHT22;23991;52.430;10.586;2024-02-21T03:54:13;8.90;82.80
38183;DHT22;23991;52.430;10.586;2024-02-21T03:56:38;8.90;82.70
38183;DHT22;23991;52.430;10.586;2024-02-21T03:59:07;8.90;82.50
38183;DHT22;23991;52.430;10.586;2024-02-21T04:01:37;8.90;82.60
38183;DHT22;23991;52.430;10.586;2024-02-21T04:04:03;8.90;82.50
38183;DHT22;23991;52.430;10.586;2024-02-21T04:06:29;8.90;82.40
38183;DHT22;23991;52.430;10.586;2024-02-21T04:08:54;8.90;82.50
38183;DHT22;23991;52.430;10.586;2024-02-21T04:11:20;8.90;82.40
38183;DHT22;23991;52.430;10.586;2024-02-21T04:13:46;8.90;82.30
38183;DHT22;23991;52.430;10.586;2024-02-21T04:16:14;8.90;82.20
38183;DHT22;23991;52.430;10.586;2024-02-21T04:18:41;8.90;82.10
38183;DHT22;23991;52.430;10.586;2024-02-21T04:21:07;8.90;82.10
38183;DHT22;23991;52.430;10.586;2024-02-21T04:23:32;8.90;82.00
38183;DHT22;23991;52.430;10.586;2024-02-21T04:25:58;8.90;82.00
38183;DHT22;23991;52.430;10.586;2024-02-21T04:28:23;9.00;82.00
38183;DHT22;23991;52.430;10.586;2024-02-21T04:30:49;8.90;81.90
38183;DHT22;23991;52.430;10.586;2024-02-21T04:33:14;9.00;81.70
38183;DHT22;23991;52.430;10.586;2024-02-21T04:35:40;9.00;81.60
38183;DHT22;23991;52.430;10.586;2024-02-21T04:38:05;9.00;81.60
38183;DHT22;23991;52.430;10.586;2024-02-21T04:40:31;9.00;81.60
38183;DHT22;23991;52.430;10.586;2024-02-21T04:42:57;8.90;81.60
38183;DHT22;23991;52.430;10.586;2024-02-21T04:45:23;8.90;81.50
38183;DHT22;23991;52.430;10.586;2024-02-21T04:47:48;8.90;81.40
38183;DHT22;23991;52.430;10.586;2024-02-21T04:50:14;8.90;81.40
38183;DHT22;23991;52.430;10.586;2024-02-21T04:52:39;9.00;81.30
38183;DHT22;23991;52.430;10.586;2024-02-21T04:55:05;9.00;81.20
38183;DHT22;23991;52.430;10.586;2024-02-21T04:57:31;9.00;81.10
38183;DHT22;23991;52.430;10.586;2024-02-21T04:59:57;9.00;80.90
38183;DHT22;23991;52.430;10.586;2024-02-21T05:02:22;9.00;80.90
38183;DHT22;23991;52.430;10.586;2024-02-21T05:04:50;9.00;80.80
38183;DHT22;23991;52.430;10.586;2024-02-21T05:07:15;9.00;80.70
38183;DHT22;23991;52.430;10.586;2024-02-21T05:09:42;9.00;80.60
38183;DHT22;23991;52.430;10.586;2024-02-21T05:12:08;9.10;80.60
38183;DHT22;23991;52.430;10.586;2024-02-21T05:14:34;9.10;80.60
38183;DHT22;23991;52.430;10.586;2024-02-21T05:16:59;9.10;80.50
38183;DHT22;23991;52.430;10.586;2024-02-21T05:19:25;9.10;80.40
38183;DHT22;23991;52.430;10.586;2024-02-21T05:21:50;9.00;80.40
38183;DHT22;23991;52.430;10.586;2024-02-21T05:24:16;9.10;80.40
38183;DHT22;23991;52.430;10.586;2024-02-21T05:26:41;9.00;80.30
38183;DHT22;23991;52.430;10.586;2024-02-21T05:29:07;9.10;80.20
38183;DHT22;23991;52.430;10.586;2024-02-21T05:34:25;9.10;80.40
38183;DHT22;23991;52.430;10.586;2024-02-21T05:36:52;9.10;80.40
38183;DHT22;23991;52.430;10.586;2024-02-21T05:39:22;9.10;80.40
38183;DHT22;23991;52.430;10.586;2024-02-21T05:41:48;9.10;80.20
38183;DHT22;23991;52.430;10.586;2024-02-21T05:44:14;9.10;80.20
38183;DHT22;23991;52.430;10.586;2024-02-21T05:46:40;9.10;80.20
38183;DHT22;23991;52.430;10.586;2024-02-21T05:49:05;9.10;80.20
38183;DHT22;23991;52.430;10.586;2024-02-21T05:51:33;9.10;80.20
38183;DHT22;23991;52.430;10.586;2024-02-21T05:53:59;9.10;80.40
38183;DHT22;23991;52.430;10.586;2024-02-21T05:56:25;9.10;80.30
38183;DHT22;23991;52.430;10.586;2024-02-21T05:58:50;9.10;80.30
38183;DHT22;23991;52.430;10.586;2024-02-21T06:01:16;9.20;80.30
38183;DHT22;23991;52.430;10.586;2024-02-21T06:03:41;9.20;80.30
38183;DHT22;23991;52.430;10.586;2024-02-21T06:06:07;9.20;80.40
38183;DHT22;23991;52.430;10.586;2024-02-21T06:08:32;9.20;80.40
38183;DHT22;23991;52.430;10.586;2024-02-21T06:10:58;9.10;80.60
38183;DHT22;23991;52.430;10.586;2024-02-21T06:13:24;9.10;80.90
38183;DHT22;23991;52.430;10.586;2024-02-21T06:15:52;9.10;80.90
38183;DHT22;23991;52.430;10.586;2024-02-21T06:18:18;9.10;81.00
38183;DHT22;23991;52.430;10.586;2024-02-21T06:20:44;9.10;81.00
38183;DHT22;23991;52.430;10.586;2024-02-21T06:23:16;9.10;80.90
38183;DHT22;23991;52.430;10.586;2024-02-21T06:25:42;9.10;80.70
38183;DHT22;23991;52.430;10.586;2024-02-21T06:28:08;9.10;80.60
38183;DHT22;23991;52.430;10.586;2024-02-21T06:30:35;9.10;80.70
38183;DHT22;23991;52.430;10.586;2024-02-21T06:33:01;9.10;80.70
38183;DHT22;23991;52.430;10.586;2024-02-21T06:35:28;9.10;80.70
38183;DHT22;23991;52.430;10.586;2024-02-21T06:37:55;9.10;80.90
38183;DHT22;23991;52.430;10.586;2024-02-21T06:40:22;9.00;80.90
38183;DHT22;23991;52.430;10.586;2024-02-21T06:42:50;9.10;81.00
38183;DHT22;23991;52.430;10.586;2024-02-21T06:45:19;9.10;81.00
38183;DHT22;23991;52.430;10.586;2024-02-21T06:47:45;9.10;81.30
38183;DHT22;23991;52.430;10.586;2024-02-21T06:50:16;9.10;81.30
38183;DHT22;23991;52.430;10.586;2024-02-21T06:52:51;9.10;81.40
38183;DHT22;23991;52.430;10.586;2024-02-21T06:55:18;9.10;81.50
38183;DHT22;23991;52.430;10.586;2024-02-21T06:57:44;9.10;81.60
38183;DHT22;23991;52.430;10.586;2024-02-21T07:00:11;9.10;81.70
38183;DHT22;23991;52.430;10.586;2024-02-21T07:02:37;9.10;81.70
38183;DHT22;23991;52.430;10.586;2024-02-21T07:05:03;9.20;81.60
38183;DHT22;23991;52.430;10.586;2024-02-21T07:07:29;9.20;81.60
38183;DHT22;23991;52.430;10.586;2024-02-21T07:09:56;9.30;81.30
38183;DHT22;23991;52.430;10.586;2024-02-21T07:12:21;9.30;81.20
38183;DHT22;23991;52.430;10.586;2024-02-21T07:14:50;9.30;81.20
38183;DHT22;23991;52.430;10.586;2024-02-21T07:17:18;9.30;81.10
38183;DHT22;23991;52.430;10.586;2024-02-21T07:19:43;9.40;80.90
38183;DHT22;23991;52.430;10.586;2024-02-21T07:22:09;9.40;80.70
38183;DHT22;23991;52.430;10.586;2024-02-21T07:24:38;9.50;80.50
38183;DHT22;23991;52.430;10.586;2024-02-21T07:27:14;9.50;80.20
38183;DHT22;23991;52.430;10.586;2024-02-21T07:29:42;9.60;80.00
38183;DHT22;23991;52.430;10.586;2024-02-21T07:32:08;9.70;79.40
38183;DHT22;23991;52.430;10.586;2024-02-21T07:34:33;9.70;79.10
38183;DHT22;23991;52.430;10.586;2024-02-21T07:36:59;9.80;79.00
38183;DHT22;23991;52.430;10.586;2024-02-21T07:39:27;9.80;78.90
38183;DHT22;23991;52.430;10.586;2024-02-21T07:41:53;9.90;78.60
38183;DHT22;23991;52.430;10.586;2024-02-21T07:44:38;9.90;78.40
38183;DHT22;23991;52.430;10.586;2024-02-21T07:47:05;10.00;78.00
38183;DHT22;23991;52.430;10.586;2024-02-21T07:49:40;10.10;77.50
38183;DHT22;23991;52.430;10.586;2024-02-21T07:52:05;10.20;77.30
38183;DHT22;23991;52.430;10.586;2024-02-21T07:54:31;10.30;77.20
38183;DHT22;23991;52.430;10.586;2024-02-21T07:56:56;10.30;77.20
38183;DHT22;23991;52.430;10.586;2024-02-21T07:59:22;10.40;77.00
38183;DHT22;23991;52.430;10.586;2024-02-21T08:01:47;10.40;77.00
38183;DHT22;23991;52.430;10.586;2024-02-21T08:04:13;10.50;77.20
38183;DHT22;23991;52.430;10.586;2024-02-21T08:06:40;10.60;76.70
38183;DHT22;23991;52.430;10.586;2024-02-21T08:09:07;10.70;76.10
38183;DHT22;23991;52.430;10.586;2024-02-21T08:11:32;10.80;75.50
38183;DHT22;23991;52.430;10.586;2024-02-21T08:14:01;10.80;75.30
38183;DHT22;23991;52.430;10.586;2024-02-21T08:16:31;10.90;74.90
38183;DHT22;23991;52.430;10.586;2024-02-21T08:18:57;11.00;74.20
38183;DHT22;23991;52.430;10.586;2024-02-21T08:21:26;11.10;73.90
38183;DHT22;23991;52.430;10.586;2024-02-21T08:23:51;11.20;73.70
38183;DHT22;23991;52.430;10.586;2024-02-21T08:26:18;11.20;73.40
38183;DHT22;23991;52.430;10.586;2024-02-21T08:28:45;11.30;73.10
38183;DHT22;23991;52.430;10.586;2024-02-21T08:31:19;11.40;72.80
38183;DHT22;23991;52.430;10.586;2024-02-21T08:33:46;11.60;72.40
38183;DHT22;23991;52.430;10.586;2024-02-21T08:36:25;11.60;72.20
38183;DHT22;23991;52.430;10.586;2024-02-21T08:38:53;11.70;72.00
38183;DHT22;23991;52.430;10.586;2024-02-21T08:41:26;11.80;71.90
38183;DHT22;23991;52.430;10.586;2024-02-21T08:43:55;11.80;71.50
38183;DHT22;23991;52.430;10.586;2024-02-21T08:46:25;11.80;71.50
38183;DHT22;23991;52.430;10.586;2024-02-21T08:49:10;11.90;71.40
38183;DHT22;23991;52.430;10.586;2024-02-21T08:51:43;12.00;70.90
38183;DHT22;23991;52.430;10.586;2024-02-21T08:54:09;12.10;70.30
38183;DHT22;23991;52.430;10.586;2024-02-21T08:56:35;12.20;69.80
38183;DHT22;23991;52.430;10.586;2024-02-21T08:59:08;12.30;69.40
38183;DHT22;23991;52.430;10.586;2024-02-21T09:01:37;12.30;69.00
38183;DHT22;23991;52.430;10.586;2024-02-21T09:04:08;12.30;68.80
38183;DHT22;23991;52.430;10.586;2024-02-21T09:06:36;12.40;68.60
38183;DHT22;23991;52.430;10.586;2024-02-21T09:09:06;12.60;67.90
38183;DHT22;23991;52.430;10.586;2024-02-21T09:11:36;12.50;67.70
38183;DHT22;23991;52.430;10.586;2024-02-21T09:14:04;12.40;68.00
38183;DHT22;23991;52.430;10.586;2024-02-21T09:16:33;12.40;68.10
38183;DHT22;23991;52.430;10.586;2024-02-21T09:19:05;12.50;67.70
38183;DHT22;23991;52.430;10.586;2024-02-21T09:21:31;12.60;67.60
38183;DHT22;23991;52.430;10.586;2024-02-21T09:23:57;12.60;66.90
38183;DHT22;23991;52.430;10.586;2024-02-21T09:26:23;12.70;67.00
38183;DHT22;23991;52.430;10.586;2024-02-21T09:28:55;12.80;66.80
38183;DHT22;23991;52.430;10.586;2024-02-21T09:31:28;12.90;66.20
38183;DHT22;23991;52.430;10.586;2024-02-21T09:33:58;13.10;65.60
38183;DHT22;23991;52.430;10.586;2024-02-21T09:36:24;13.20;65.70
38183;DHT22;23991;52.430;10.586;2024-02-21T09:38:50;13.30;65.00
38183;DHT22;23991;52.430;10.586;2024-02-21T09:41:26;13.40;64.70
38183;DHT22;23991;52.430;10.586;2024-02-21T09:43:53;13.50;64.40
38183;DHT22;23991;52.430;10.586;2024-02-21T09:46:23;13.60;64.10
38183;DHT22;23991;52.430;10.586;2024-02-21T09:51:48;13.70;63.30
38183;DHT22;23991;52.430;10.586;2024-02-21T09:54:25;13.60;63.50
38183;DHT22;23991;52.430;10.586;2024-02-21T09:56:52;13.80;63.30
38183;DHT22;23991;52.430;10.586;2024-02-21T09:59:18;13.90;62.50
38183;DHT22;23991;52.430;10.586;2024-02-21T10:01:45;14.10;61.20
38183;DHT22;23991;52.430;10.586;2024-02-21T10:04:12;14.30;60.90
38183;DHT22;23991;52.430;10.586;2024-02-21T10:06:39;14.40;60.00
38183;DHT22;23991;52.430;10.586;2024-02-21T10:09:08;14.50;59.40
38183;DHT22;23991;52.430;10.586;2024-02-21T10:11:35;14.80;58.70
38183;DHT22;23991;52.430;10.586;2024-02-21T10:14:04;14.90;58.40
38183;DHT22;23991;52.430;10.586;2024-02-21T10:16:32;15.30;56.60
38183;DHT22;23991;52.430;10.586;2024-02-21T10:19:00;15.30;56.00
38183;DHT22;23991;52.430;10.586;2024-02-21T10:21:25;15.40;54.70
38183;DHT22;23991;52.430;10.586;2024-02-21T10:23:51;15.60;54.40
38183;DHT22;23991;52.430;10.586;2024-02-21T10:26:24;15.80;53.60
38183;DHT22;23991;52.430;10.586;2024-02-21T10:28:51;16.10;52.40
38183;DHT22;23991;52.430;10.586;2024-02-21T10:31:25;16.40;50.70
38183;DHT22;23991;52.430;10.586;2024-02-21T10:34:01;16.40;50.70
38183;DHT22;23991;52.430;10.586;2024-02-21T10:36:31;16.50;50.40
38183;DHT22;23991;52.430;10.586;2024-02-21T10:39:01;16.60;49.30
38183;DHT22;23991;52.430;10.586;2024-02-21T10:41:26;16.60;49.30
38183;DHT22;23991;52.430;10.586;2024-02-21T10:43:54;16.60;49.20
38183;DHT22;23991;52.430;10.586;2024-02-21T10:46:22;16.80;48.10
38183;DHT22;23991;52.430;10.586;2024-02-21T10:48:52;16.80;48.30
38183;DHT22;23991;52.430;10.586;2024-02-21T10:51:20;16.80;48.20
38183;DHT22;23991;52.430;10.586;2024-02-21T10:56:52;17.00;48.20
38183;DHT22;23991;52.430;10.586;2024-02-21T10:59:19;17.50;47.30
38183;DHT22;23991;52.430;10.586;2024-02-21T11:01:47;17.40;46.00
38183;DHT22;23991;52.430;10.586;2024-02-21T11:04:13;17.60;45.90
38183;DHT22;23991;52.430;10.586;2024-02-21T11:06:40;17.40;45.90
38183;DHT22;23991;52.430;10.586;2024-02-21T11:09:09;17.30;45.80
38183;DHT22;23991;52.430;10.586;2024-02-21T11:11:39;17.50;45.40
38183;DHT22;23991;52.430;10.586;2024-02-21T11:14:18;17.30;45.50
38183;DHT22;23991;52.430;10.586;2024-02-21T11:16:44;17.40;45.40
38183;DHT22;23991;52.430;10.586;2024-02-21T11:21:44;17.70;45.20
38183;DHT22;23991;52.430;10.586;2024-02-21T11:24:13;17.70;45.10
38183;DHT22;23991;52.430;10.586;2024-02-21T11:26:40;17.80;44.90
38183;DHT22;23991;52.430;10.586;2024-02-21T11:29:07;17.80;45.30
38183;DHT22;23991;52.430;10.586;2024-02-21T11:31:42;17.80;45.40
38183;DHT22;23991;52.430;10.586;2024-02-21T11:34:13;18.00;45.10
38183;DHT22;23991;52.430;10.586;2024-02-21T11:36:51;18.10;44.30
38183;DHT22;23991;52.430;10.586;2024-02-21T11:42:00;17.80;44.50
38183;DHT22;23991;52.430;10.586;2024-02-21T11:44:35;17.80;44.10
38183;DHT22;23991;52.430;10.586;2024-02-21T11:47:20;17.80;44.40
38183;DHT22;23991;52.430;10.586;2024-02-21T11:49:52;18.00;44.40
38183;DHT22;23991;52.430;10.586;2024-02-21T11:52:22;17.90;43.60
38183;DHT22;23991;52.430;10.586;2024-02-21T11:54:50;17.80;44.20
38183;DHT22;23991;52.430;10.586;2024-02-21T11:57:17;18.00;43.70
38183;DHT22;23991;52.430;10.586;2024-02-21T11:59:45;18.20;44.20
38183;DHT22;23991;52.430;10.586;2024-02-21T12:02:11;18.10;43.60
38183;DHT22;23991;52.430;10.586;2024-02-21T12:04:38;18.10;43.60
38183;DHT22;23991;52.430;10.586;2024-02-21T12:07:14;18.10;44.00
38183;DHT22;23991;52.430;10.586;2024-02-21T12:09:45;18.10;43.80
38183;DHT22;23991;52.430;10.586;2024-02-21T12:12:11;18.40;43.70
38183;DHT22;23991;52.430;10.586;2024-02-21T12:14:37;18.50;43.70
38183;DHT22;23991;52.430;10.586;2024-02-21T12:17:03;18.70;42.90
38183;DHT22;23991;52.430;10.586;2024-02-21T12:19:35;18.40;43.40
38183;DHT22;23991;52.430;10.586;2024-02-21T12:22:01;18.30;43.30
38183;DHT22;23991;52.430;10.586;2024-02-21T12:24:32;18.30;43.00
38183;DHT22;23991;52.430;10.586;2024-02-21T12:26:58;18.40;43.40
38183;DHT22;23991;52.430;10.586;2024-02-21T12:29:24;18.40;43.30
38183;DHT22;23991;52.430;10.586;2024-02-21T12:31:53;18.10;43.70
38183;DHT22;23991;52.430;10.586;2024-02-21T12:34:26;17.90;44.00
38183;DHT22;23991;52.430;10.586;2024-02-21T12:36:58;17.80;44.60
38183;DHT22;23991;52.430;10.586;2024-02-21T12:39:23;17.80;44.60
38183;DHT22;23991;52.430;10.586;2024-02-21T12:41:50;17.80;45.30
38183;DHT22;23991;52.430;10.586;2024-02-21T12:44:21;17.90;44.80
38183;DHT22;23991;52.430;10.586;2024-02-21T12:46:48;18.00;44.10
38183;DHT22;23991;52.430;10.586;2024-02-21T12:49:19;18.20;43.70
38183;DHT22;23991;52.430;10.586;2024-02-21T12:51:45;18.20;43.30
38183;DHT22;23991;52.430;10.586;2024-02-21T12:54:13;18.40;43.30
38183;DHT22;23991;52.430;10.586;2024-02-21T12:56:40;18.20;43.30
38183;DHT22;23991;52.430;10.586;2024-02-21T12:59:06;18.20;42.80
38183;DHT22;23991;52.430;10.586;2024-02-21T13:01:36;18.20;43.40
38183;DHT22;23991;52.430;10.586;2024-02-21T13:04:03;18.20;43.30
38183;DHT22;23991;52.430;10.586;2024-02-21T13:06:29;18.40;42.70
38183;DHT22;23991;52.430;10.586;2024-02-21T13:08:55;18.30;42.50
38183;DHT22;23991;52.430;10.586;2024-02-21T13:11:25;18.20;42.80
38183;DHT22;23991;52.430;10.586;2024-02-21T13:13:58;18.20;43.30
38183;DHT22;23991;52.430;10.586;2024-02-21T13:16:23;18.30;42.20
38183;DHT22;23991;52.430;10.586;2024-02-21T13:18:52;18.20;42.40
38183;DHT22;23991;52.430;10.586;2024-02-21T13:21:27;18.00;42.60
38183;DHT22;23991;52.430;10.586;2024-02-21T13:23:59;18.00;42.60
38183;DHT22;23991;52.430;10.586;2024-02-21T13:26:24;18.00;42.80
38183;DHT22;23991;52.430;10.586;2024-02-21T13:28:51;18.10;42.50
38183;DHT22;23991;52.430;10.586;2024-02-21T13:31:17;18.10;42.10
38183;DHT22;23991;52.430;10.586;2024-02-21T13:34:03;18.00;42.40
38183;DHT22;23991;52.430;10.586;2024-02-21T13:36:28;18.10;42.30
38183;DHT22;23991;52.430;10.586;2024-02-21T13:38:55;18.20;42.80
38183;DHT22;23991;52.430;10.586;2024-02-21T13:41:21;18.30;42.20
38183;DHT22;23991;52.430;10.586;2024-02-21T13:43:49;18.50;42.30
38183;DHT22;23991;52.430;10.586;2024-02-21T13:46:19;18.60;41.80
38183;DHT22;23991;52.430;10.586;2024-02-21T13:48:46;18.30;41.50
38183;DHT22;23991;52.430;10.586;2024-02-21T13:51:12;18.20;42.30
38183;DHT22;23991;52.430;10.586;2024-02-21T13:53:39;18.20;41.60
38183;DHT22;23991;52.430;10.586;2024-02-21T13:56:09;18.30;42.20
38183;DHT22;23991;52.430;10.586;2024-02-21T13:58:35;18.30;42.10
38183;DHT22;23991;52.430;10.586;2024-02-21T14:01:02;18.30;42.30
38183;DHT22;23991;52.430;10.586;2024-02-21T14:03:29;18.40;42.20
38183;DHT22;23991;52.430;10.586;2024-02-21T14:05:54;18.50;42.50
38183;DHT22;23991;52.430;10.586;2024-02-21T14:08:24;18.40;42.20
38183;DHT22;23991;52.430;10.586;2024-02-21T14:10:50;18.10;42.20
38183;DHT22;23991;52.430;10.586;2024-02-21T14:13:17;17.80;42.90
38183;DHT22;23991;52.430;10.586;2024-02-21T14:15:44;17.90;42.60
38183;DHT22;23991;52.430;10.586;2024-02-21T14:18:13;17.90;42.60
38183;DHT22;23991;52.430;10.586;2024-02-21T14:20:44;17.80;42.90
38183;DHT22;23991;52.430;10.586;2024-02-21T14:23:19;17.80;43.40
38183;DHT22;23991;52.430;10.586;2024-02-21T14:25:44;17.80;43.20
38183;DHT22;23991;52.430;10.586;2024-02-21T14:28:10;17.90;43.30
38183;DHT22;23991;52.430;10.586;2024-02-21T14:30:37;17.80;43.60
38183;DHT22;23991;52.430;10.586;2024-02-21T14:33:04;17.80;43.80
38183;DHT22;23991;52.430;10.586;2024-02-21T14:35:35;17.70;44.40
38183;DHT22;23991;52.430;10.586;2024-02-21T14:38:01;17.50;44.00
38183;DHT22;23991;52.430;10.586;2024-02-21T14:40:36;17.50;44.30
38183;DHT22;23991;52.430;10.586;2024-02-21T14:43:04;17.50;44.20
38183;DHT22;23991;52.430;10.586;2024-02-21T14:45:35;17.50;44.30
38183;DHT22;23991;52.430;10.586;2024-02-21T14:48:00;17.70;43.50
38183;DHT22;23991;52.430;10.586;2024-02-21T14:50:26;17.50;44.60
38183;DHT22;23991;52.430;10.586;2024-02-21T14:52:53;17.70;44.30
38183;DHT22;23991;52.430;10.586;2024-02-21T14:55:21;17.50;44.50
38183;DHT22;23991;52.430;10.586;2024-02-21T14:57:50;17.50;44.90
38183;DHT22;23991;52.430;10.586;2024-02-21T15:00:18;17.50;44.70
38183;DHT22;23991;52.430;10.586;2024-02-21T15:02:53;17.30;45.50
38183;DHT22;23991;52.430;10.586;2024-02-21T15:05:22;17.30;45.90
38183;DHT22;23991;52.430;10.586;2024-02-21T15:07:49;17.20;46.10
38183;DHT22;23991;52.430;10.586;2024-02-21T15:10:17;17.20;45.90
38183;DHT22;23991;52.430;10.586;2024-02-21T15:12:47;17.30;45.80
38183;DHT22;23991;52.430;10.586;2024-02-21T15:15:17;17.10;45.90
38183;DHT22;23991;52.430;10.586;2024-02-21T15:17:44;16.90;46.90
38183;DHT22;23991;52.430;10.586;2024-02-21T15:20:13;17.20;46.00
38183;DHT22;23991;52.430;10.586;2024-02-21T15:22:42;17.10;46.50
38183;DHT22;23991;52.430;10.586;2024-02-21T15:25:09;17.00;46.70
38183;DHT22;23991;52.430;10.586;2024-02-21T15:27:58;16.80;47.20
38183;DHT22;23991;52.430;10.586;2024-02-21T15:30:27;16.80;47.60
38183;DHT22;23991;52.430;10.586;2024-02-21T15:33:00;16.70;48.00
38183;DHT22;23991;52.430;10.586;2024-02-21T15:35:50;16.40;48.40
38183;DHT22;23991;52.430;10.586;2024-02-21T15:38:25;16.60;48.00